Air Navigation Services of Czech Republic
Airport: LKCV Updated:  21.01.2019 05:01:06  UTC
 METAR LKCV 21.01. 05:00 ...
METAR LKCV 210500Z 12002KT 6000 NSC M09/M11 Q1021 NOSIG RMK WHT WHT=
 TAF LKCV 20.01. 23:00 ...
TAF LKCV 202300Z 2100/2200 VRB02KT CAVOK      TEMPO 2101/2105 4000 BR      PROB30 TEMPO 2105/2108 1500 BR      TEMPO 2120/2200 4000 BR NSC=